Gallup, NM

3:13 AM MDT en Mayo 05, 2015 (GMT -0600)
Gallup Municipal | | Change Station
CLOSE
Current Station
Aeropuerto
Location: Gallup,
Altura: 6470 ft
Estaciones meteorológicas cercanas

Alt 6470 ft 35.51 °N, 108.79 °W | Updated 9 minutes ago

Muy nublado
Muy nublado
44 ° F
Sensación térmica 42 ° F
N
4
Viento Variable Viento desde SO

Hoy
Alta -- | Baja -- ° F
--% Posibilidad de precipitaciones
Ayer
Alta -- | Baja -- ° F
Precip. -- pul
6:19 AM 8:04 PM
Luna llena, 98% visible
Presión 29.99 pul
Visibilidad 10.0 Millas
Nubes Muy nublado 1700 ft
Nublado 6500 ft
Vientos helados 42 ° F
Punto de rocío 42 ° F
Humedad 93%
Precipitaciones 0.01 pul
Espesor de la nieve No disponible.
UV 0 de una escala de 12
Polen 6.50 de una escala de 12
Calidad del aire No disponible.
Flu Activity Local Activity
SPECI KGUP 050904Z AUTO 23003KT 10SM BKN017 OVC065 07/06 A2999 RMK AO2 T00670056

More Conditions Fewer Conditions

Presión 29.99 pul
Visibilidad 10.0 Millas
Nubes Muy nublado 1700 ft
Nublado 6500 ft
Vientos helados 42 ° F
Punto de rocío 42 ° F
Humedad 93%
Precipitaciones 0.01 pul
Espesor de la nieve No disponible.
UV 0 de una escala de 12
Polen 6.50 de una escala de 12
Calidad del aire No disponible.
Flu Activity Local Activity
SPECI KGUP 050904Z AUTO 23003KT 10SM BKN017 OVC065 07/06 A2999 RMK AO2 T00670056

More Conditions Fewer Conditions

Nepal has a long way to go to dig out and rebuild from a devastating earthquake. We have teamed up with several charities and organizations to make contributing to the relief effort as easy as possible.
How you can help: Portlight Strategies | Red Cross

10-Day Weather Forecast

Almanac

Astronomía

May. 05, 2015 Salida Puesta
Hora real
Crepúsculo civil
Crepúsculo náutico
Crepúsculo astronómico
Luna
Horas de luz
Horas de luz
Tomorrow will be .
, % of the Moon is Illuminated

Extremos de hoy

Máximos del estado Bajos del estado

Community

WunderPhotos

Upload Photos

1,818,824 ¡fotos cargadas!

WunderBlogs® & News

Nearby

Calidad del aire

  Calidad del aire Índice AQ Contaminante
Not available.

Grosos de nieve

Estación Profundido Altura

Actividad de terremotos

Ciudad Distance Mag. Tiempo y dato
Magnitud mínima muestra es 2,5.

Temperaturas de aguas costeras

Lugar Temperatura

Stations

Estaciones meteorológicas cercanas

Ubicación de la estación Temp. Vientos helados Punto de rocío Humedad Viento Precip. Alt Actualizado Tipo